Time;durP1;ratioP1;P1;durP2;ratioP2;P2;SDS_P1;SDS_P2;PMS_P1;PMS_P2;Temp;Humidity;BMP_temperature;BMP_pressure;BME280_temperature;BME280_humidity;BME280_pressure;Samples;Min_cycle;Max_cycle;Signal;HPM_P1;HPM_P2
2022/11/23 00:01:20;;;;;;;23.13;16.77;;;7.30;99.90;;;;;;5033241;28;20091;-60
2022/11/23 00:03:47;;;;;;;28.80;18.23;;;7.10;99.90;;;;;;5034676;28;20379;-59
2022/11/23 00:06:14;;;;;;;26.02;17.02;;;6.90;99.90;;;;;;5035078;28;20116;-59
2022/11/23 00:08:39;;;;;;;25.65;17.13;;;6.70;99.90;;;;;;5031701;28;20456;-60
2022/11/23 00:11:05;;;;;;;24.08;17.30;;;7.10;99.90;;;;;;5032028;28;20046;-59
2022/11/23 00:13:33;;;;;;;26.13;17.02;;;6.90;99.90;;;;;;5031721;28;20041;-59
2022/11/23 00:16:00;;;;;;;26.05;17.23;;;7.20;99.90;;;;;;5031855;28;20037;-60
2022/11/23 00:18:25;;;;;;;26.10;17.15;;;7.30;99.90;;;;;;5032068;28;20529;-60
2022/11/23 00:20:51;;;;;;;25.40;16.42;;;7.30;99.90;;;;;;5035629;28;20129;-59
2022/11/23 00:23:17;;;;;;;25.52;17.38;;;6.90;99.90;;;;;;5035641;28;20085;-59
2022/11/23 00:25:45;;;;;;;25.85;16.60;;;7.20;99.90;;;;;;5035775;28;20033;-60
2022/11/23 00:28:11;;;;;;;26.27;18.00;;;7.40;99.90;;;;;;5035775;28;20042;-59
2022/11/23 00:30:37;;;;;;;25.10;17.05;;;7.00;99.90;;;;;;5035404;28;20117;-60
2022/11/23 00:33:03;;;;;;;25.05;17.02;;;7.40;99.90;;;;;;5035421;28;20045;-60
2022/11/23 00:35:29;;;;;;;24.00;16.02;;;7.10;99.90;;;;;;5035560;28;20120;-59
2022/11/23 00:37:54;;;;;;;25.80;17.45;;;7.40;99.90;;;;;;5035380;28;20121;-60
2022/11/23 00:40:20;;;;;;;26.25;16.48;;;6.90;99.90;;;;;;5035450;28;20112;-59
2022/11/23 00:42:45;;;;;;;27.80;17.88;;;7.40;99.90;;;;;;5035385;28;20404;-60
2022/11/23 00:45:11;;;;;;;24.42;16.73;;;7.50;99.90;;;;;;5035312;28;20470;-60
2022/11/23 00:47:37;;;;;;;24.75;16.08;;;7.20;99.90;;;;;;5035244;28;20497;-59
2022/11/23 00:50:03;;;;;;;27.00;16.83;;;6.90;99.90;;;;;;5034814;28;20470;-59
2022/11/23 00:52:28;;;;;;;24.10;15.70;;;7.00;99.90;;;;;;5034965;28;20037;-60
2022/11/23 00:54:54;;;;;;;23.00;16.08;;;7.60;99.90;;;;;;5035044;28;20056;-59
2022/11/23 00:57:20;;;;;;;22.02;15.30;;;7.00;99.90;;;;;;5044691;28;20048;-60
2022/11/23 00:59:45;;;;;;;24.02;15.55;;;7.50;99.90;;;;;;5054808;28;20072;-60
2022/11/23 01:02:11;;;;;;;24.00;15.45;;;7.00;99.90;;;;;;5054932;28;20171;-59
2022/11/23 01:04:38;;;;;;;22.88;15.20;;;7.40;99.90;;;;;;5036783;28;20077;-60
2022/11/23 01:07:03;;;;;;;22.38;14.98;;;7.20;99.90;;;;;;5055082;28;20041;-59
2022/11/23 01:09:29;;;;;;;24.70;15.57;;;7.60;99.90;;;;;;5054347;28;20405;-60
2022/11/23 01:11:55;;;;;;;26.50;14.98;;;7.10;99.90;;;;;;5054523;28;20051;-59
2022/11/23 01:14:21;;;;;;;24.38;15.63;;;7.00;99.90;;;;;;5036937;28;20124;-62
2022/11/23 01:16:47;;;;;;;25.90;15.30;;;7.60;99.90;;;;;;5054934;28;20037;-63
2022/11/23 01:19:18;;;;;;;22.45;16.42;;;7.00;99.90;;;;;;5054856;28;20048;-62
2022/11/23 01:21:44;;;;;;;21.77;14.90;;;7.60;99.90;;;;;;5054657;28;20033;-59
2022/11/23 01:24:16;;;;;;;23.00;14.63;;;7.30;99.90;;;;;;5054371;28;20068;-62
2022/11/23 01:26:43;;;;;;;22.33;15.20;;;7.20;99.90;;;;;;5054722;28;20095;-62
2022/11/23 01:29:09;;;;;;;22.75;13.93;;;7.10;99.90;;;;;;5054739;28;20044;-62
2022/11/23 01:31:34;;;;;;;21.23;14.30;;;7.10;99.90;;;;;;5054548;28;20043;-62
2022/11/23 01:34:02;;;;;;;22.92;14.98;;;7.70;99.90;;;;;;5054545;28;20112;-62
2022/11/23 01:36:31;;;;;;;21.17;13.93;;;7.70;99.90;;;;;;5054368;28;20224;-62
2022/11/23 01:38:58;;;;;;;24.95;14.57;;;7.10;99.90;;;;;;5054367;28;20033;-62
2022/11/23 01:41:37;;;;;;;20.52;13.65;;;7.50;99.90;;;;;;5053195;28;20080;-59
2022/11/23 01:44:21;;;;;;;25.15;15.85;;;7.50;99.90;;;;;;5033943;28;20050;-59
2022/11/23 01:46:47;;;;;;;19.00;13.65;;;7.30;99.90;;;;;;5034280;28;20033;-59
2022/11/23 01:49:13;;;;;;;25.85;14.52;;;7.60;99.90;;;;;;5016375;28;20067;-60
2022/11/23 01:51:42;;;;;;;21.13;14.23;;;7.20;99.90;;;;;;5034292;28;20500;-59
2022/11/23 01:54:14;;;;;;;24.90;13.75;;;7.20;99.90;;;;;;5033923;28;20061;-60
2022/11/23 01:56:49;;;;;;;22.48;14.05;;;7.30;99.90;;;;;;5037855;28;20488;-60
2022/11/23 01:59:18;;;;;;;21.20;13.10;;;7.40;99.90;;;;;;5053798;28;20380;-59
2022/11/23 02:01:43;;;;;;;22.45;14.32;;;7.50;99.90;;;;;;5054040;28;20080;-59
2022/11/23 02:04:15;;;;;;;25.70;14.60;;;7.90;99.90;;;;;;5053952;28;20503;-59
2022/11/23 02:06:43;;;;;;;26.95;14.10;;;7.20;99.90;;;;;;5053805;28;20041;-59
2022/11/23 02:09:10;;;;;;;22.23;13.90;;;7.90;99.90;;;;;;5053569;28;20061;-59
2022/11/23 02:11:35;;;;;;;21.55;14.73;;;7.60;99.90;;;;;;5035743;28;20052;-60
2022/11/23 02:14:01;;;;;;;24.55;14.30;;;7.70;99.90;;;;;;5019358;28;20037;-60
2022/11/23 02:16:28;;;;;;;23.60;14.13;;;7.50;99.90;;;;;;5053475;28;20080;-60
2022/11/23 02:18:53;;;;;;;28.05;14.98;;;7.30;99.90;;;;;;5035691;28;20029;-60
2022/11/23 02:21:19;;;;;;;25.23;15.48;;;7.60;99.90;;;;;;5053333;28;20116;-60
2022/11/23 02:23:58;;;;;;;23.40;14.82;;;7.60;99.90;;;;;;5053292;28;20128;-59
2022/11/23 02:26:26;;;;;;;22.92;14.32;;;7.80;99.90;;;;;;5053648;28;20040;-59
2022/11/23 02:29:04;;;;;;;23.17;14.75;;;7.90;99.90;;;;;;5053204;28;20128;-59
2022/11/23 02:31:30;;;;;;;24.08;15.63;;;7.90;99.90;;;;;;5053100;28;20129;-59
2022/11/23 02:33:56;;;;;;;25.65;14.93;;;7.80;99.90;;;;;;5053494;28;20037;-59
2022/11/23 02:36:41;;;;;;;26.00;15.13;;;7.90;99.90;;;;;;5052909;28;20397;-60
2022/11/23 02:39:25;;;;;;;24.17;15.10;;;7.30;99.90;;;;;;5053181;28;20088;-59
2022/11/23 02:41:52;;;;;;;24.85;14.00;;;7.30;99.90;;;;;;5052668;28;20041;-59
2022/11/23 02:44:57;;;;;;;26.75;15.20;;;7.40;99.90;;;;;;5052978;28;20378;-60
2022/11/23 02:47:23;;;;;;;25.23;15.27;;;7.60;99.90;;;;;;5052960;28;20045;-59
2022/11/23 02:49:49;;;;;;;27.75;15.25;;;7.90;99.90;;;;;;5053000;28;20597;-59
2022/11/23 02:52:16;;;;;;;24.20;14.23;;;7.40;99.90;;;;;;5052853;28;20404;-60
2022/11/23 02:54:42;;;;;;;23.25;15.45;;;7.30;99.90;;;;;;5052999;28;20128;-60
2022/11/23 02:57:08;;;;;;;26.48;14.73;;;7.40;99.90;;;;;;5052754;28;20124;-60
2022/11/23 02:59:34;;;;;;;26.80;15.77;;;8.00;99.90;;;;;;5034978;28;20048;-60
2022/11/23 03:02:01;;;;;;;28.52;15.68;;;7.90;99.90;;;;;;5053065;28;20045;-60
2022/11/23 03:04:27;;;;;;;22.35;14.52;;;8.00;99.90;;;;;;5053229;28;20033;-59
2022/11/23 03:06:53;;;;;;;30.85;16.00;;;7.30;99.90;;;;;;5052755;28;20075;-60
2022/11/23 03:09:19;;;;;;;29.50;16.13;;;7.40;99.90;;;;;;5052290;28;20064;-62
2022/11/23 03:11:44;;;;;;;26.02;15.52;;;7.40;99.90;;;;;;5052688;28;20072;-62
2022/11/23 03:14:10;;;;;;;30.30;16.05;;;7.40;99.90;;;;;;5052601;28;20041;-62
2022/11/23 03:16:35;;;;;;;28.48;15.90;;;7.90;99.90;;;;;;5052367;28;20041;-62
2022/11/23 03:19:01;;;;;;;30.70;16.88;;;8.00;99.90;;;;;;5052625;28;20049;-62
2022/11/23 03:21:27;;;;;;;27.45;16.42;;;8.00;99.90;;;;;;5052351;28;20041;-62
2022/11/23 03:23:54;;;;;;;27.17;17.50;;;7.30;99.90;;;;;;5052348;28;20041;-60
2022/11/23 03:26:19;;;;;;;28.85;16.80;;;7.80;99.90;;;;;;5034350;28;20041;-59
2022/11/23 03:28:45;;;;;;;30.05;16.83;;;8.00;99.90;;;;;;5052063;28;20385;-60
2022/11/23 03:31:11;;;;;;;26.38;15.68;;;7.40;99.90;;;;;;5052375;28;20122;-61
2022/11/23 03:33:37;;;;;;;30.85;16.58;;;7.30;99.90;;;;;;5052223;28;20052;-59
2022/11/23 03:36:03;;;;;;;30.73;17.38;;;8.00;99.90;;;;;;5034241;28;20044;-60
2022/11/23 03:38:29;;;;;;;29.20;17.13;;;7.30;99.90;;;;;;5052027;28;20072;-60
2022/11/23 03:40:54;;;;;;;27.77;15.80;;;8.00;99.90;;;;;;5052084;28;20084;-59
2022/11/23 03:43:20;;;;;;;33.55;16.77;;;7.60;99.90;;;;;;5052097;28;20044;-60
2022/11/23 03:45:46;;;;;;;32.80;17.40;;;7.70;99.90;;;;;;5052168;28;20397;-60
2022/11/23 03:48:13;;;;;;;27.90;16.40;;;8.00;99.90;;;;;;5034094;28;20033;-60
2022/11/23 03:50:38;;;;;;;29.77;16.80;;;7.30;99.90;;;;;;5052065;28;20040;-60
2022/11/23 03:53:05;;;;;;;32.47;15.98;;;7.60;99.90;;;;;;5051941;28;20049;-59
2022/11/23 03:55:31;;;;;;;29.80;17.70;;;7.90;99.90;;;;;;5038082;28;20045;-59
2022/11/23 03:58:00;;;;;;;31.75;16.45;;;7.70;99.90;;;;;;5041327;28;20041;-60
2022/11/23 04:00:29;;;;;;;31.38;17.02;;;7.80;99.90;;;;;;5018447;28;20081;-60
2022/11/23 04:02:55;;;;;;;29.05;16.05;;;7.20;99.90;;;;;;5036063;28;20087;-60
2022/11/23 04:05:21;;;;;;;30.60;17.50;;;7.90;99.90;;;;;;5035894;28;20037;-59
2022/11/23 04:07:48;;;;;;;31.05;17.70;;;7.30;99.90;;;;;;5035823;28;20370;-60
2022/11/23 04:10:15;;;;;;;33.50;18.27;;;7.20;99.90;;;;;;5035641;28;20049;-59
2022/11/23 04:12:41;;;;;;;31.27;18.17;;;7.20;99.90;;;;;;5035887;28;20049;-59
2022/11/23 04:15:07;;;;;;;33.92;17.35;;;7.90;99.90;;;;;;5035989;28;20123;-60
2022/11/23 04:17:32;;;;;;;30.67;17.17;;;7.40;99.90;;;;;;5035834;28;20042;-59
2022/11/23 04:19:58;;;;;;;38.38;19.02;;;7.80;99.90;;;;;;5036021;28;20052;-59
2022/11/23 04:22:24;;;;;;;33.83;17.70;;;7.50;99.90;;;;;;5035501;28;20041;-59
2022/11/23 04:24:49;;;;;;;36.72;19.83;;;7.20;99.90;;;;;;5035626;28;20040;-60
2022/11/23 04:27:15;;;;;;;37.72;18.85;;;7.90;99.90;;;;;;5035809;28;20034;-59
2022/11/23 04:29:40;;;;;;;35.97;19.13;;;7.90;99.90;;;;;;5035759;28;20056;-60
2022/11/23 04:32:06;;;;;;;38.53;19.73;;;7.60;99.90;;;;;;5035802;28;20073;-59
2022/11/23 04:34:32;;;;;;;38.42;20.15;;;7.90;99.90;;;;;;5035466;28;20103;-60
2022/11/23 04:36:58;;;;;;;38.38;21.73;;;8.00;99.90;;;;;;5035464;28;20049;-60
2022/11/23 04:39:24;;;;;;;40.25;21.42;;;8.00;99.90;;;;;;5035614;28;20045;-61
2022/11/23 04:41:49;;;;;;;44.50;21.42;;;7.30;99.90;;;;;;5035316;28;20037;-60
2022/11/23 04:44:15;;;;;;;35.40;20.70;;;7.90;99.90;;;;;;5035084;28;20077;-61
2022/11/23 04:46:40;;;;;;;40.30;22.35;;;8.00;99.90;;;;;;5035327;28;20037;-60
2022/11/23 04:49:08;;;;;;;38.75;21.45;;;7.90;99.90;;;;;;5035342;28;20037;-60
2022/11/23 04:51:33;;;;;;;41.17;21.42;;;7.50;99.90;;;;;;5035069;28;20038;-61
2022/11/23 04:53:59;;;;;;;35.95;21.27;;;7.90;99.90;;;;;;5035281;28;20045;-61
2022/11/23 04:56:25;;;;;;;45.47;23.15;;;7.90;99.90;;;;;;5037137;28;20458;-61
2022/11/23 04:58:50;;;;;;;43.13;22.92;;;7.90;99.90;;;;;;5055164;28;20029;-60
2022/11/23 05:01:16;;;;;;;43.90;22.92;;;7.60;99.90;;;;;;5054841;28;20033;-61
2022/11/23 05:03:42;;;;;;;40.95;22.05;;;7.20;99.90;;;;;;5042432;28;20129;-60
2022/11/23 05:06:09;;;;;;;44.63;22.98;;;7.20;99.90;;;;;;5034717;28;20081;-61
2022/11/23 05:08:35;;;;;;;43.03;22.52;;;7.80;99.90;;;;;;5034925;28;20397;-60
2022/11/23 05:11:01;;;;;;;41.65;22.05;;;7.40;99.90;;;;;;5035080;28;20045;-60
2022/11/23 05:13:27;;;;;;;42.92;23.27;;;7.20;99.90;;;;;;5034986;28;20504;-61
2022/11/23 05:15:52;;;;;;;44.25;23.52;;;7.90;99.90;;;;;;5035033;28;20446;-60
2022/11/23 05:18:18;;;;;;;47.63;23.90;;;7.20;99.90;;;;;;5034667;28;20049;-60
2022/11/23 05:20:44;;;;;;;44.70;25.48;;;7.30;99.90;;;;;;5034606;28;20048;-60
2022/11/23 05:23:11;;;;;;;42.78;23.83;;;7.90;99.90;;;;;;5017003;28;20050;-60
2022/11/23 05:25:36;;;;;;;40.88;22.70;;;7.60;99.90;;;;;;5034738;28;20056;-60
2022/11/23 05:28:03;;;;;;;39.65;22.45;;;7.20;99.90;;;;;;5034550;28;20037;-60
2022/11/23 05:30:28;;;;;;;48.42;24.70;;;7.30;99.90;;;;;;5034416;28;20543;-60
2022/11/23 05:32:59;;;;;;;45.47;23.90;;;7.50;99.90;;;;;;5034348;28;20041;-60
2022/11/23 05:35:25;;;;;;;46.22;25.27;;;7.30;99.90;;;;;;5034219;28;20417;-61
2022/11/23 05:37:50;;;;;;;47.08;25.33;;;7.60;99.90;;;;;;5034602;28;20038;-61
2022/11/23 05:40:17;;;;;;;50.45;25.63;;;8.00;99.90;;;;;;5034387;28;20063;-60
2022/11/23 05:42:42;;;;;;;48.33;25.73;;;7.30;99.90;;;;;;5034415;28;20045;-61
2022/11/23 05:45:08;;;;;;;45.13;25.25;;;8.00;99.90;;;;;;5016602;28;20059;-61
2022/11/23 05:47:34;;;;;;;49.95;24.33;;;7.30;99.90;;;;;;5034132;28;20041;-61
2022/11/23 05:49:59;;;;;;;50.75;27.15;;;7.30;99.90;;;;;;5033963;28;20044;-61
2022/11/23 05:52:25;;;;;;;51.05;26.67;;;7.90;99.90;;;;;;5034358;28;20049;-61
2022/11/23 05:54:51;;;;;;;48.47;26.08;;;7.40;99.90;;;;;;5034127;28;20041;-61
2022/11/23 05:57:17;;;;;;;52.85;25.58;;;7.70;99.90;;;;;;5043072;28;20079;-61
2022/11/23 05:59:43;;;;;;;52.35;25.42;;;8.10;99.90;;;;;;5053838;28;20033;-61
2022/11/23 06:02:09;;;;;;;50.45;26.67;;;7.70;99.90;;;;;;5053874;28;20045;-61
2022/11/23 06:04:34;;;;;;;49.97;24.73;;;8.00;99.90;;;;;;5053606;28;20469;-61
2022/11/23 06:07:00;;;;;;;46.55;23.92;;;7.80;99.90;;;;;;5053996;28;20102;-61
2022/11/23 06:09:27;;;;;;;48.55;25.48;;;7.40;99.90;;;;;;5054284;28;20052;-60
2022/11/23 06:11:52;;;;;;;47.60;26.38;;;8.10;99.90;;;;;;5054208;28;20058;-61
2022/11/23 06:14:18;;;;;;;54.15;27.08;;;7.40;99.90;;;;;;5053975;28;20044;-60
2022/11/23 06:16:44;;;;;;;47.35;24.65;;;7.40;99.90;;;;;;5053105;28;20045;-61
2022/11/23 06:19:09;;;;;;;47.40;24.80;;;7.80;99.90;;;;;;5053098;28;20068;-60
2022/11/23 06:21:35;;;;;;;50.10;26.20;;;7.90;99.90;;;;;;5052278;28;20119;-62
2022/11/23 06:24:01;;;;;;;48.13;24.65;;;8.10;99.90;;;;;;5052239;28;20048;-60
2022/11/23 06:26:26;;;;;;;50.60;25.58;;;8.10;99.90;;;;;;5052229;28;20126;-60
2022/11/23 06:28:52;;;;;;;48.17;26.23;;;8.10;99.90;;;;;;5052785;28;20041;-60
2022/11/23 06:31:18;;;;;;;47.78;25.77;;;8.00;99.90;;;;;;5052474;28;20358;-60
2022/11/23 06:33:43;;;;;;;48.92;25.73;;;7.40;99.90;;;;;;5052370;28;20354;-60
2022/11/23 06:36:10;;;;;;;44.72;23.77;;;8.10;99.90;;;;;;5052276;28;20056;-61
2022/11/23 06:38:35;;;;;;;46.72;23.10;;;7.40;99.90;;;;;;5034002;28;20041;-60
2022/11/23 06:41:01;;;;;;;42.30;22.75;;;7.40;99.90;;;;;;5038796;28;20124;-60
2022/11/23 06:43:28;;;;;;;43.08;24.80;;;8.00;99.90;;;;;;5043436;28;20073;-60
2022/11/23 06:45:54;;;;;;;41.28;20.98;;;7.50;99.90;;;;;;5041591;28;20037;-61
2022/11/23 06:48:20;;;;;;;35.38;20.00;;;8.00;99.90;;;;;;5035314;28;20041;-60
2022/11/23 06:50:46;;;;;;;40.10;21.58;;;8.10;99.90;;;;;;5032210;28;20394;-61
2022/11/23 06:53:12;;;;;;;40.05;20.08;;;8.00;99.90;;;;;;5031994;28;20095;-60
2022/11/23 06:55:38;;;;;;;37.55;19.77;;;7.40;99.90;;;;;;5031645;28;20045;-60
2022/11/23 06:58:05;;;;;;;41.13;20.27;;;7.70;99.90;;;;;;5047326;28;20107;-60
2022/11/23 07:00:31;;;;;;;34.35;18.42;;;8.00;99.90;;;;;;5051472;28;20055;-60
2022/11/23 07:02:59;;;;;;;38.72;20.98;;;7.80;99.90;;;;;;5051521;28;20117;-60
2022/11/23 07:05:26;;;;;;;37.65;18.95;;;7.80;99.90;;;;;;5051207;28;20637;-61
2022/11/23 07:07:52;;;;;;;37.30;18.98;;;7.70;99.90;;;;;;5051575;28;20385;-59
2022/11/23 07:10:18;;;;;;;31.85;18.10;;;7.30;99.90;;;;;;5051176;28;20057;-60
2022/11/23 07:12:44;;;;;;;32.78;17.02;;;7.70;99.90;;;;;;5051409;28;20487;-61
2022/11/23 07:15:10;;;;;;;33.78;17.90;;;7.80;99.90;;;;;;5033646;28;20043;-61
2022/11/23 07:17:39;;;;;;;33.88;17.38;;;7.40;99.90;;;;;;5051061;28;20112;-61
2022/11/23 07:20:07;;;;;;;33.95;18.13;;;7.60;99.90;;;;;;5051001;28;20044;-60
2022/11/23 07:22:33;;;;;;;30.30;16.50;;;7.40;99.90;;;;;;5033042;28;20044;-60
2022/11/23 07:24:59;;;;;;;29.80;16.67;;;7.30;99.90;;;;;;5050986;28;20041;-60
2022/11/23 07:27:24;;;;;;;32.80;15.63;;;7.60;99.90;;;;;;5051077;28;20579;-60
2022/11/23 07:29:50;;;;;;;33.47;16.38;;;7.30;99.90;;;;;;5033150;28;20124;-61
2022/11/23 07:32:15;;;;;;;33.30;16.45;;;7.70;99.90;;;;;;5050828;28;20077;-60
2022/11/23 07:34:41;;;;;;;28.77;15.63;;;7.80;99.90;;;;;;5050794;28;20037;-61
2022/11/23 07:37:07;;;;;;;28.13;14.93;;;7.80;99.90;;;;;;5050865;28;20041;-61
2022/11/23 07:39:32;;;;;;;27.48;14.07;;;7.60;99.90;;;;;;5050705;28;20507;-61
2022/11/23 07:41:58;;;;;;;25.70;14.27;;;7.50;99.90;;;;;;5050820;28;20044;-61
2022/11/23 07:44:24;;;;;;;24.58;14.27;;;7.40;99.90;;;;;;5050670;28;20084;-60
2022/11/23 07:46:52;;;;;;;22.38;12.48;;;7.50;99.90;;;;;;5016698;28;20045;-61
2022/11/23 07:49:18;;;;;;;23.23;12.77;;;7.30;99.90;;;;;;5050711;28;20059;-60
2022/11/23 07:51:43;;;;;;;24.35;13.25;;;7.30;99.90;;;;;;5050764;28;20243;-61
2022/11/23 07:54:09;;;;;;;23.45;12.70;;;7.70;99.90;;;;;;5032954;28;20045;-60
2022/11/23 07:56:35;;;;;;;21.75;12.25;;;7.30;99.90;;;;;;5046986;28;20033;-60
2022/11/23 07:59:00;;;;;;;24.40;12.73;;;7.30;99.90;;;;;;5012786;28;20042;-61
2022/11/23 08:01:26;;;;;;;24.40;11.77;;;7.30;99.90;;;;;;5030223;28;20127;-60
2022/11/23 08:03:52;;;;;;;24.65;14.73;;;7.70;99.90;;;;;;5030369;28;20041;-61
2022/11/23 08:06:17;;;;;;;23.27;12.60;;;7.70;99.90;;;;;;5012768;28;20041;-60
2022/11/23 08:08:43;;;;;;;22.63;11.20;;;7.30;99.90;;;;;;5030339;28;20061;-61
2022/11/23 08:11:10;;;;;;;22.00;11.82;;;7.30;99.90;;;;;;5030512;28;20069;-61
2022/11/23 08:13:38;;;;;;;18.50;10.98;;;7.60;99.90;;;;;;5036314;28;20053;-61
2022/11/23 08:16:04;;;;;;;19.10;10.88;;;7.80;99.90;;;;;;5041419;28;20221;-61
2022/11/23 08:18:30;;;;;;;25.65;11.15;;;7.60;99.90;;;;;;5039924;28;20099;-60
2022/11/23 08:20:59;;;;;;;22.98;10.63;;;7.60;99.90;;;;;;5030661;28;20045;-60
2022/11/23 08:23:25;;;;;;;19.25;10.27;;;7.70;99.90;;;;;;5030608;28;20045;-60
2022/11/23 08:25:50;;;;;;;20.20;10.18;;;7.80;99.90;;;;;;5030763;28;20045;-60
2022/11/23 08:28:16;;;;;;;23.85;11.68;;;7.80;99.90;;;;;;5030633;28;20037;-60
2022/11/23 08:30:43;;;;;;;23.58;10.73;;;7.60;99.90;;;;;;5030462;28;20414;-61
2022/11/23 08:33:08;;;;;;;21.98;11.05;;;7.80;99.90;;;;;;5030182;28;20508;-61
2022/11/23 08:35:38;;;;;;;24.02;10.55;;;7.60;99.90;;;;;;5030551;28;20037;-60
2022/11/23 08:38:05;;;;;;;20.67;9.90;;;7.90;99.90;;;;;;5030614;28;20041;-60
2022/11/23 08:40:31;;;;;;;22.10;10.07;;;7.50;99.90;;;;;;5032728;28;20061;-61
2022/11/23 08:42:57;;;;;;;22.05;9.73;;;7.50;99.90;;;;;;5033976;28;20049;-61
2022/11/23 08:45:23;;;;;;;21.80;9.40;;;8.00;99.90;;;;;;5016289;28;20072;-61
2022/11/23 08:47:49;;;;;;;16.58;9.63;;;7.60;99.90;;;;;;5033900;28;20042;-61
2022/11/23 08:50:16;;;;;;;21.95;9.15;;;7.90;99.90;;;;;;5034171;28;20116;-61
2022/11/23 08:52:42;;;;;;;21.05;8.45;;;8.00;99.90;;;;;;5034467;28;20435;-60
2022/11/23 08:55:08;;;;;;;18.27;8.30;;;7.90;99.90;;;;;;5015933;28;20081;-60
2022/11/23 08:57:34;;;;;;;18.30;8.55;;;8.00;99.90;;;;;;5045706;28;20059;-61
2022/11/23 09:00:00;;;;;;;20.13;8.85;;;7.90;99.90;;;;;;5035872;28;20561;-60
2022/11/23 09:02:25;;;;;;;22.35;9.52;;;7.70;99.90;;;;;;5053899;28;20132;-60
2022/11/23 09:04:51;;;;;;;23.17;9.50;;;8.00;99.90;;;;;;5053775;28;20056;-61
2022/11/23 09:07:17;;;;;;;18.73;8.00;;;8.00;99.90;;;;;;5053935;28;20037;-60
2022/11/23 09:09:43;;;;;;;20.52;8.68;;;7.80;99.90;;;;;;5035578;28;20057;-60
2022/11/23 09:12:08;;;;;;;15.50;7.45;;;7.70;99.90;;;;;;5053798;28;20072;-60
2022/11/23 09:14:34;;;;;;;20.88;8.07;;;7.80;99.90;;;;;;5053880;28;20044;-60
2022/11/23 09:17:01;;;;;;;16.02;8.05;;;7.80;99.90;;;;;;5035984;28;20069;-60
2022/11/23 09:19:27;;;;;;;14.70;7.03;;;8.20;99.90;;;;;;5053135;28;20086;-60
2022/11/23 09:21:53;;;;;;;18.63;7.22;;;8.20;99.90;;;;;;5053519;28;20028;-62
2022/11/23 09:24:19;;;;;;;18.20;6.57;;;8.10;99.90;;;;;;5053077;28;20044;-62
2022/11/23 09:26:44;;;;;;;19.15;7.68;;;7.90;99.90;;;;;;5035364;28;20052;-61
2022/11/23 09:29:10;;;;;;;12.98;6.38;;;8.20;99.90;;;;;;5050626;28;20037;-61
2022/11/23 09:31:36;;;;;;;15.02;7.00;;;8.00;99.90;;;;;;5042531;28;20429;-60
2022/11/23 09:34:02;;;;;;;14.90;7.32;;;8.30;99.90;;;;;;5023758;28;20099;-60
2022/11/23 09:36:27;;;;;;;13.82;7.10;;;8.10;99.90;;;;;;5043325;28;20041;-60
2022/11/23 09:38:54;;;;;;;17.58;7.13;;;8.40;99.90;;;;;;5023925;28;20048;-60
2022/11/23 09:41:51;;;;;;;16.08;6.95;;;8.10;99.90;;;;;;5043496;28;20032;-61
2022/11/23 09:44:57;;;;;;;21.73;8.25;;;8.20;99.90;;;;;;5043366;28;20556;-60
2022/11/23 09:47:44;;;;;;;19.63;7.07;;;8.60;99.90;;;;;;5027562;28;20048;-60
2022/11/23 09:50:26;;;;;;;17.73;7.20;;;8.30;99.90;;;;;;5053247;28;20047;-60
2022/11/23 09:52:52;;;;;;;17.85;6.00;;;8.30;99.90;;;;;;5034583;28;20049;-60
2022/11/23 09:55:36;;;;;;;16.08;6.35;;;8.30;99.90;;;;;;5053290;28;20044;-60
2022/11/23 09:58:05;;;;;;;11.45;6.28;;;8.60;99.90;;;;;;5037536;28;20041;-60
2022/11/23 10:00:37;;;;;;;18.33;6.53;;;8.40;99.90;;;;;;5033128;28;20045;-60
2022/11/23 10:03:03;;;;;;;17.45;5.45;;;8.40;99.90;;;;;;5033091;28;20387;-61
2022/11/23 10:05:35;;;;;;;14.77;5.55;;;8.60;99.90;;;;;;5033097;28;20041;-60
2022/11/23 10:08:05;;;;;;;14.63;5.65;;;8.50;99.90;;;;;;5032846;28;20041;-60
2022/11/23 10:10:43;;;;;;;14.77;5.97;;;8.70;99.90;;;;;;5032094;28;20061;-61
2022/11/23 10:13:15;;;;;;;18.83;6.45;;;8.40;99.90;;;;;;5032848;28;20081;-60
2022/11/23 10:16:02;;;;;;;13.07;4.80;;;8.40;99.90;;;;;;5032990;28;20048;-60
2022/11/23 10:18:56;;;;;;;14.23;5.38;;;8.60;99.90;;;;;;5032633;28;20057;-60
2022/11/23 10:21:34;;;;;;;12.55;5.22;;;8.50;99.90;;;;;;5032350;28;20045;-60
2022/11/23 10:24:19;;;;;;;9.93;4.40;;;8.50;99.90;;;;;;5013875;28;20440;-61
2022/11/23 10:26:49;;;;;;;14.98;5.28;;;8.70;99.90;;;;;;5031995;28;20048;-60
2022/11/23 10:29:15;;;;;;;19.73;5.65;;;8.60;99.90;;;;;;5032618;28;20045;-60
2022/11/23 10:31:46;;;;;;;16.92;5.53;;;8.70;99.90;;;;;;5050352;28;20040;-60
2022/11/23 10:34:14;;;;;;;13.00;4.85;;;8.60;99.90;;;;;;5052299;28;20056;-60
2022/11/23 10:36:41;;;;;;;15.90;5.38;;;8.70;99.90;;;;;;5034451;28;20053;-60
2022/11/23 10:39:18;;;;;;;13.13;4.90;;;8.70;99.90;;;;;;5052574;28;20355;-60
2022/11/23 10:41:45;;;;;;;16.42;6.85;;;8.60;99.90;;;;;;5052202;28;20033;-61
2022/11/23 10:44:17;;;;;;;18.13;5.07;;;8.60;99.90;;;;;;5034088;28;20052;-61
2022/11/23 10:46:45;;;;;;;15.70;5.45;;;8.50;99.90;;;;;;5052341;28;20170;-60
2022/11/23 10:49:29;;;;;;;15.85;5.72;;;8.60;99.90;;;;;;5052253;28;20047;-60
2022/11/23 10:52:22;;;;;;;15.77;5.25;;;8.80;99.90;;;;;;5052074;28;20065;-60
2022/11/23 10:54:54;;;;;;;13.75;5.40;;;8.80;99.90;;;;;;5052181;28;20045;-60
2022/11/23 10:57:33;;;;;;;17.63;6.13;;;8.70;99.90;;;;;;5046062;28;20056;-60
2022/11/23 11:00:16;;;;;;;15.48;5.40;;;8.90;99.90;;;;;;5039338;28;20433;-61
2022/11/23 11:02:48;;;;;;;16.40;5.50;;;8.80;99.90;;;;;;5039655;28;20390;-59
2022/11/23 11:05:46;;;;;;;13.57;5.38;;;8.60;99.90;;;;;;5025028;28;20393;-59
2022/11/23 11:08:15;;;;;;;15.43;5.65;;;8.70;99.90;;;;;;5019695;28;20118;-61
2022/11/23 11:11:07;;;;;;;12.48;5.28;;;8.90;99.90;;;;;;5051314;28;20096;-60
2022/11/23 11:13:45;;;;;;;14.52;4.50;;;9.00;99.90;;;;;;5051487;28;20083;-60
2022/11/23 11:16:26;;;;;;;15.40;5.72;;;9.10;99.90;;;;;;5051771;28;20032;-61
2022/11/23 11:18:52;;;;;;;15.73;4.82;;;9.00;99.90;;;;;;5050748;28;20053;-60
2022/11/23 11:21:22;;;;;;;13.23;5.03;;;9.00;99.90;;;;;;5051356;28;20406;-60
2022/11/23 11:23:54;;;;;;;14.82;4.72;;;9.00;99.90;;;;;;5051608;28;20041;-60
2022/11/23 11:26:22;;;;;;;13.32;4.55;;;9.30;99.90;;;;;;5051667;28;20393;-60
2022/11/23 11:28:52;;;;;;;15.10;4.38;;;9.20;99.90;;;;;;5051575;28;20044;-60
2022/11/23 11:31:44;;;;;;;13.27;4.20;;;9.00;99.90;;;;;;5048104;28;20101;-60
2022/11/23 11:34:21;;;;;;;13.57;4.07;;;9.10;99.90;;;;;;5038326;28;20060;-60
2022/11/23 11:37:34;;;;;;;14.18;3.72;;;9.00;99.90;;;;;;5030610;28;20029;-60
2022/11/23 11:40:08;;;;;;;13.85;3.50;;;9.10;99.90;;;;;;4986800;28;20176;-61
2022/11/23 11:42:56;;;;;;;12.68;3.58;;;9.50;99.90;;;;;;5038363;28;20444;-61
2022/11/23 11:45:36;;;;;;;13.60;3.97;;;9.60;99.90;;;;;;5037184;28;20037;-60
2022/11/23 11:48:08;;;;;;;16.38;3.28;;;9.40;99.90;;;;;;5018789;28;20515;-60
2022/11/23 11:50:43;;;;;;;13.63;3.80;;;9.40;99.90;;;;;;5035298;28;20037;-61
2022/11/23 11:53:17;;;;;;;16.48;3.88;;;9.30;99.90;;;;;;5036931;28;20504;-61
2022/11/23 11:55:59;;;;;;;11.63;2.80;;;9.40;99.90;;;;;;5035086;28;20048;-60
2022/11/23 11:58:25;;;;;;;16.88;3.15;;;9.30;99.90;;;;;;5035459;28;20799;-61
2022/11/23 12:01:05;;;;;;;12.15;2.85;;;9.30;99.90;;;;;;5045122;28;20111;-61
2022/11/23 12:03:48;;;;;;;13.77;3.15;;;9.20;99.90;;;;;;5032136;28;20046;-62
2022/11/23 12:06:22;;;;;;;12.10;3.08;;;9.20;99.90;;;;;;5013623;28;20049;-61
2022/11/23 12:09:17;;;;;;;15.45;3.33;;;9.30;99.90;;;;;;5031142;28;20037;-61
2022/11/23 12:11:43;;;;;;;12.18;3.00;;;9.40;99.90;;;;;;5031649;28;20471;-61
2022/11/23 12:14:13;;;;;;;14.95;2.88;;;9.40;99.90;;;;;;5037105;28;20037;-61
2022/11/23 12:16:45;;;;;;;12.93;2.30;;;9.40;99.90;;;;;;5046092;28;20083;-61
2022/11/23 12:19:16;;;;;;;13.45;3.15;;;9.30;99.90;;;;;;5053210;28;20052;-61
2022/11/23 12:22:10;;;;;;;14.18;3.25;;;9.40;99.90;;;;;;5055613;28;20048;-61
2022/11/23 12:25:13;;;;;;;15.68;2.70;;;9.40;99.90;;;;;;5032155;28;20045;-61
2022/11/23 12:27:59;;;;;;;13.43;2.65;;;9.40;99.90;;;;;;5028530;28;20103;-62
2022/11/23 12:31:01;;;;;;;12.52;2.92;;;9.40;99.90;;;;;;5044219;28;20116;-60
2022/11/23 12:33:57;;;;;;;16.77;4.55;;;9.40;99.90;;;;;;5043825;28;20067;-62
2022/11/23 12:36:29;;;;;;;11.25;3.10;;;9.50;99.90;;;;;;5046092;28;20390;-61
2022/11/23 12:39:18;;;;;;;19.40;4.03;;;9.50;99.90;;;;;;5045548;28;20041;-61
2022/11/23 12:42:07;;;;;;;17.92;3.05;;;9.50;99.90;;;;;;5044737;28;20128;-61
2022/11/23 12:44:54;;;;;;;16.50;4.28;;;9.50;99.90;;;;;;5048747;28;20462;-61
2022/11/23 12:47:43;;;;;;;15.40;3.47;;;9.50;99.90;;;;;;5045644;28;20041;-61
2022/11/23 12:50:24;;;;;;;13.82;2.78;;;9.60;99.90;;;;;;5044080;28;20060;-61
2022/11/23 12:53:12;;;;;;;13.05;2.47;;;9.50;99.90;;;;;;5044262;28;20041;-61